Time;durP1;ratioP1;P1;durP2;ratioP2;P2;SDS_P1;SDS_P2;PMS_P1;PMS_P2;Temp;Humidity;BMP_temperature;BMP_pressure;BME280_temperature;BME280_humidity;BME280_pressure;Samples;Min_cycle;Max_cycle;Signal;HPM_P1;HPM_P2
2022/05/18 00:00:53;;;;;;;10.20;6.07;;;;;;;;;;6117467;23;20049;-87
2022/05/18 00:03:21;;;;;;;11.10;5.68;;;;;;;;;;6092704;23;20022;-88
2022/05/18 00:05:47;;;;;;;7.97;5.63;;;;;;;;;;6091936;23;20496;-87
2022/05/18 00:08:14;;;;;;;11.27;5.88;;;;;;;;;;6071511;23;20014;-88
2022/05/18 00:10:42;;;;;;;10.43;5.70;;;;;;;;;;6109217;23;20021;-86
2022/05/18 00:13:09;;;;;;;13.80;5.72;;;;;;;;;;6092313;23;20025;-87
2022/05/18 00:15:35;;;;;;;9.07;5.88;;;;;;;;;;6066537;23;20033;-87
2022/05/18 00:18:01;;;;;;;11.13;5.70;;;;;;;;;;6093411;23;20028;-87
2022/05/18 00:20:27;;;;;;;9.27;5.68;;;;;;;;;;6089816;23;20070;-86
2022/05/18 00:23:02;;;;;;;8.20;5.65;;;;;;;;;;6092567;23;20013;-87
2022/05/18 00:25:35;;;;;;;13.07;5.72;;;;;;;;;;6088957;23;20017;-89
2022/05/18 00:28:01;;;;;;;10.52;5.60;;;;;;;;;;6094267;23;20018;-88
2022/05/18 00:30:28;;;;;;;10.50;5.65;;;;;;;;;;6091238;23;20013;-86
2022/05/18 00:32:55;;;;;;;12.60;5.75;;;;;;;;;;6094118;23;20028;-87
2022/05/18 00:35:22;;;;;;;9.38;5.88;;;;;;;;;;6117335;23;20018;-87
2022/05/18 00:37:48;;;;;;;9.52;6.20;;;;;;;;;;6089564;23;20815;-88
2022/05/18 00:40:16;;;;;;;11.45;6.25;;;;;;;;;;6092140;23;20589;-87
2022/05/18 00:42:42;;;;;;;12.52;6.60;;;;;;;;;;6095852;23;20019;-86
2022/05/18 00:45:09;;;;;;;10.50;6.13;;;;;;;;;;6067253;23;20017;-85
2022/05/18 00:47:35;;;;;;;9.73;5.72;;;;;;;;;;6067818;23;20052;-87
2022/05/18 00:50:05;;;;;;;12.80;6.15;;;;;;;;;;6067661;23;20354;-87
2022/05/18 00:52:37;;;;;;;11.52;6.55;;;;;;;;;;6092326;23;20466;-87
2022/05/18 00:55:08;;;;;;;13.93;6.07;;;;;;;;;;6091323;23;20513;-86
2022/05/18 00:57:49;;;;;;;9.77;5.80;;;22.40;99.90;;;;;;6091618;23;20017;-84
2022/05/18 01:00:19;;;;;;;10.98;6.25;;;17.00;99.90;;;;;;6094015;23;20017;-85
2022/05/18 01:02:52;;;;;;;11.48;6.28;;;16.90;99.90;;;;;;6093488;23;20017;-85
2022/05/18 01:05:22;;;;;;;10.80;5.90;;;16.80;99.90;;;;;;6092478;23;20021;-85
2022/05/18 01:07:51;;;;;;;10.23;6.13;;;;;;;;;;6092180;23;20014;-86
2022/05/18 01:10:18;;;;;;;9.25;6.30;;;;;;;;;;6089208;23;20381;-85
2022/05/18 01:12:45;;;;;;;14.27;6.63;;;;;;;;;;6092185;23;20023;-85
2022/05/18 01:15:13;;;;;;;11.43;6.25;;;;;;;;;;6069118;23;20064;-85
2022/05/18 01:17:41;;;;;;;15.45;6.63;;;;;;;;;;6115316;23;20406;-85
2022/05/18 01:20:12;;;;;;;11.27;6.15;;;16.80;99.90;;;;;;6093427;23;20105;-84
2022/05/18 01:23:08;;;;;;;11.30;6.33;;;16.60;99.90;;;;;;6091174;23;20013;-85
2022/05/18 01:25:47;;;;;;;9.35;6.10;;;16.60;99.90;;;;;;6092750;23;20014;-85
2022/05/18 01:28:13;;;;;;;10.45;6.00;;;16.60;99.90;;;;;;6091159;23;20460;-85
2022/05/18 01:30:45;;;;;;;11.43;6.18;;;16.50;99.90;;;;;;6071875;23;20698;-85
2022/05/18 01:33:12;;;;;;;12.05;6.93;;;16.50;99.90;;;;;;6090846;23;20013;-85
2022/05/18 01:35:41;;;;;;;13.68;6.60;;;16.50;99.90;;;;;;6092961;23;20013;-85
2022/05/18 01:38:12;;;;;;;11.35;6.45;;;16.50;99.90;;;;;;6095282;23;20013;-84
2022/05/18 01:41:05;;;;;;;12.13;6.78;;;16.40;99.90;;;;;;6091201;23;20020;-85
2022/05/18 01:43:36;;;;;;;12.00;7.10;;;16.40;99.90;;;;;;6093354;23;20096;-85
2022/05/18 01:46:06;;;;;;;11.05;7.13;;;16.40;99.90;;;;;;6117757;23;20493;-85
2022/05/18 01:48:35;;;;;;;11.05;6.63;;;16.30;99.90;;;;;;6093556;23;20044;-88
2022/05/18 01:51:02;;;;;;;13.45;7.68;;;;;;;;;;6094307;23;20076;-86
2022/05/18 01:53:29;;;;;;;10.52;7.22;;;;;;;;;;6118066;23;20124;-87
2022/05/18 01:55:56;;;;;;;16.48;7.55;;;;;;;;;;6095917;23;20397;-85
2022/05/18 01:58:22;;;;;;;12.70;7.53;;;;;;;;;;6072334;23;20100;-85
2022/05/18 02:00:49;;;;;;;14.68;7.00;;;;;;;;;;6092873;23;20017;-84
2022/05/18 02:03:16;;;;;;;13.07;6.70;;;;;;;;;;6096018;23;20049;-86
2022/05/18 02:05:42;;;;;;;15.35;6.95;;;16.30;99.90;;;;;;6097324;23;20025;-84
2022/05/18 02:08:10;;;;;;;9.45;6.40;;;16.30;99.90;;;;;;6096545;23;20024;-84
2022/05/18 02:10:36;;;;;;;11.63;6.43;;;16.20;99.90;;;;;;6092494;23;20010;-85
2022/05/18 02:13:03;;;;;;;13.02;6.60;;;16.20;99.90;;;;;;6092109;23;20021;-84
2022/05/18 02:15:29;;;;;;;12.02;6.68;;;16.20;99.90;;;;;;6074289;23;20100;-85
2022/05/18 02:17:55;;;;;;;10.75;6.97;;;16.20;99.90;;;;;;6072178;23;20045;-85
2022/05/18 02:20:21;;;;;;;12.05;6.93;;;16.10;99.90;;;;;;6068384;23;20057;-85
2022/05/18 02:22:47;;;;;;;10.55;6.40;;;16.10;99.90;;;;;;6093493;23;20624;-86
2022/05/18 02:25:13;;;;;;;14.40;7.03;;;16.10;99.90;;;;;;6069871;23;20018;-87
2022/05/18 02:27:39;;;;;;;12.82;7.40;;;16.10;99.90;;;;;;6068683;23;20045;-85
2022/05/18 02:30:07;;;;;;;14.18;7.80;;;16.10;99.90;;;;;;6069716;23;20017;-87
2022/05/18 02:32:33;;;;;;;15.88;6.95;;;16.00;99.90;;;;;;6093494;23;20017;-88
2022/05/18 02:34:59;;;;;;;11.75;7.22;;;16.00;99.90;;;;;;6094453;23;20032;-89
2022/05/18 02:37:26;;;;;;;8.98;6.38;;;16.00;99.90;;;;;;6072432;23;20096;-87
2022/05/18 02:39:52;;;;;;;11.73;7.38;;;16.00;99.90;;;;;;6069796;23;20018;-89
2022/05/18 02:42:18;;;;;;;12.35;6.40;;;16.00;99.90;;;;;;6067813;23;20021;-88
2022/05/18 02:44:44;;;;;;;11.23;6.75;;;16.00;99.90;;;;;;6071778;23;20021;-88
2022/05/18 02:47:10;;;;;;;11.90;6.68;;;15.90;99.90;;;;;;6072798;23;20017;-87
2022/05/18 02:49:35;;;;;;;12.70;6.75;;;16.00;99.90;;;;;;6095317;23;20451;-88
2022/05/18 02:52:01;;;;;;;9.07;6.70;;;16.00;99.90;;;;;;6068569;23;20096;-87
2022/05/18 02:57:11;;;;;;;11.68;7.05;;;15.90;99.90;;;;;;6097620;23;20017;-89
2022/05/18 02:59:38;;;;;;;11.52;7.20;;;16.00;99.90;;;;;;6070414;23;20116;-87
2022/05/18 03:02:04;;;;;;;15.52;7.22;;;16.00;99.90;;;;;;6091220;23;20018;-89
2022/05/18 03:04:30;;;;;;;12.77;6.70;;;16.00;99.90;;;;;;6070509;23;20013;-88
2022/05/18 03:06:57;;;;;;;14.07;7.50;;;15.90;99.90;;;;;;6075410;23;20068;-87
2022/05/18 03:09:23;;;;;;;10.52;6.68;;;15.90;99.90;;;;;;6082202;23;20045;-87
2022/05/18 03:11:50;;;;;;;12.65;7.57;;;15.90;99.90;;;;;;6082733;23;20024;-91
2022/05/18 03:14:16;;;;;;;16.27;7.50;;;15.90;99.90;;;;;;6083138;23;20017;-86
2022/05/18 03:16:44;;;;;;;11.90;7.22;;;15.90;99.90;;;;;;6084732;23;20024;-85
2022/05/18 03:19:14;;;;;;;10.05;6.72;;;15.90;99.90;;;;;;6107740;23;20052;-90
2022/05/18 03:24:25;;;;;;;11.68;8.07;;;;;;;;;;6106443;23;20332;-86
2022/05/18 03:26:51;;;;;;;11.18;7.00;;;;;;;;;;6079843;23;20049;-86
2022/05/18 03:29:18;;;;;;;12.32;8.18;;;;;;;;;;6129974;23;20045;-86
2022/05/18 03:31:44;;;;;;;20.35;7.70;;;;;;;;;;6104264;23;20073;-88
2022/05/18 03:34:10;;;;;;;12.40;7.85;;;;;;;;;;6129189;23;20021;-87
2022/05/18 03:36:37;;;;;;;10.82;7.97;;;;;;;;;;6079742;23;20045;-86
2022/05/18 03:39:04;;;;;;;12.65;7.03;;;;;;;;;;6097962;23;20650;-85
2022/05/18 03:41:30;;;;;;;15.45;7.53;;;;;;;;;;6096562;23;20013;-85
2022/05/18 03:43:56;;;;;;;15.35;8.43;;;;;;;;;;6070123;23;20025;-88
2022/05/18 03:46:22;;;;;;;15.70;7.95;;;;;;;;;;6096674;23;20112;-85
2022/05/18 03:48:48;;;;;;;13.15;7.32;;;;;;;;;;6095339;23;20013;-85
2022/05/18 03:51:18;;;;;;;12.68;7.90;;;;;;;;;;6096185;23;20055;-86
2022/05/18 03:53:45;;;;;;;18.60;7.72;;;;;;;;;;6115114;23;20021;-84
2022/05/18 03:56:11;;;;;;;10.68;8.10;;;;;;;;;;6090651;23;20052;-86
2022/05/18 03:58:37;;;;;;;15.60;7.35;;;;;;;;;;6095227;23;20096;-86
2022/05/18 04:01:08;;;;;;;18.90;8.00;;;;;;;;;;6092891;23;20040;-88
2022/05/18 04:03:35;;;;;;;13.30;8.23;;;;;;;;;;6097940;23;20017;-86
2022/05/18 04:06:01;;;;;;;10.90;7.70;;;;;;;;;;6098025;23;20434;-88
2022/05/18 04:08:27;;;;;;;14.35;9.00;;;;;;;;;;6096356;23;20100;-88
2022/05/18 04:10:54;;;;;;;13.25;8.18;;;;;;;;;;6070994;23;20060;-89
2022/05/18 04:13:24;;;;;;;16.30;8.95;;;;;;;;;;6069697;23;20040;-88
2022/05/18 04:15:51;;;;;;;12.13;8.75;;;;;;;;;;6089888;23;20028;-86
2022/05/18 04:18:17;;;;;;;14.90;8.80;;;;;;;;;;6124157;23;20068;-86
2022/05/18 04:20:44;;;;;;;11.88;8.20;;;;;;;;;;6095585;23;20013;-85
2022/05/18 04:23:11;;;;;;;11.45;8.38;;;;;;;;;;6090850;23;20443;-86
2022/05/18 04:25:37;;;;;;;15.02;8.73;;;;;;;;;;6083931;23;20014;-86
2022/05/18 04:28:05;;;;;;;16.02;9.00;;;;;;;;;;6069412;23;20058;-88
2022/05/18 04:30:31;;;;;;;18.30;8.93;;;;;;;;;;6096372;23;20392;-87
2022/05/18 04:32:58;;;;;;;13.50;8.77;;;;;;;;;;6094627;23;20419;-88
2022/05/18 04:35:26;;;;;;;13.07;8.85;;;;;;;;;;6090923;23;20811;-88
2022/05/18 04:37:55;;;;;;;12.70;8.68;;;;;;;;;;6088689;23;20028;-88
2022/05/18 04:40:21;;;;;;;12.55;8.60;;;;;;;;;;6089443;23;20028;-88
2022/05/18 04:42:48;;;;;;;10.98;8.05;;;;;;;;;;6088907;23;20100;-89
2022/05/18 04:45:15;;;;;;;13.88;9.20;;;;;;;;;;6091127;23;20021;-88
2022/05/18 04:47:41;;;;;;;12.18;8.23;;;;;;;;;;6091776;23;20010;-87
2022/05/18 04:50:08;;;;;;;13.45;8.95;;;;;;;;;;6094069;23;20020;-88
2022/05/18 04:52:34;;;;;;;12.70;8.98;;;;;;;;;;6116741;23;20064;-88
2022/05/18 04:55:00;;;;;;;15.50;9.13;;;;;;;;;;6072458;23;20113;-88
2022/05/18 04:57:26;;;;;;;13.00;9.70;;;;;;;;;;6098458;23;20021;-86
2022/05/18 04:59:52;;;;;;;13.50;9.30;;;;;;;;;;6076138;23;20017;-86
2022/05/18 05:02:19;;;;;;;13.57;9.82;;;;;;;;;;6072839;23;20077;-86
2022/05/18 05:04:45;;;;;;;15.23;9.80;;;;;;;;;;6074621;23;20088;-87
2022/05/18 05:07:11;;;;;;;15.25;10.45;;;;;;;;;;6092201;23;20049;-87
2022/05/18 05:09:38;;;;;;;18.58;10.57;;;;;;;;;;6092858;23;20363;-86
2022/05/18 05:12:05;;;;;;;13.40;10.07;;;;;;;;;;6096439;23;20029;-86
2022/05/18 05:14:33;;;;;;;13.48;9.98;;;;;;;;;;6074067;23;20021;-89
2022/05/18 05:17:00;;;;;;;13.88;10.30;;;;;;;;;;6094923;23;20017;-87
2022/05/18 05:19:26;;;;;;;15.40;10.25;;;;;;;;;;6095325;23;20043;-86
2022/05/18 05:21:52;;;;;;;18.58;11.07;;;;;;;;;;6097117;23;20088;-86
2022/05/18 05:24:18;;;;;;;14.95;10.57;;;;;;;;;;6097039;23;20025;-86
2022/05/18 05:26:45;;;;;;;14.13;11.23;;;;;;;;;;6077326;23;20017;-86
2022/05/18 05:29:14;;;;;;;17.73;11.95;;;;;;;;;;6099507;23;20412;-84
2022/05/18 05:31:40;;;;;;;16.95;10.55;;;;;;;;;;6098012;23;20150;-88
2022/05/18 05:34:06;;;;;;;16.40;11.15;;;;;;;;;;6100585;23;20017;-88
2022/05/18 05:36:33;;;;;;;14.80;11.05;;;;;;;;;;6075915;23;20017;-86
2022/05/18 05:38:59;;;;;;;17.52;11.77;;;;;;;;;;6073425;23;20146;-89
2022/05/18 05:41:29;;;;;;;14.95;11.88;;;;;;;;;;6102190;23;20021;-85
2022/05/18 05:43:56;;;;;;;15.95;11.70;;;;;;;;;;6104890;23;20032;-86
2022/05/18 05:46:23;;;;;;;17.98;12.27;;;;;;;;;;6098632;23;20013;-84
2022/05/18 05:48:50;;;;;;;16.88;11.98;;;;;;;;;;6075557;23;20017;-85
2022/05/18 05:51:18;;;;;;;18.17;11.55;;;;;;;;;;6099912;23;20094;-86
2022/05/18 05:53:45;;;;;;;19.25;11.68;;;;;;;;;;6098685;23;20017;-88
2022/05/18 05:56:15;;;;;;;19.40;12.52;;;;;;;;;;6099300;23;20079;-88
2022/05/18 05:58:43;;;;;;;16.58;12.77;;;;;;;;;;6098812;23;20058;-87
2022/05/18 06:01:10;;;;;;;25.20;12.48;;;;;;;;;;6097642;23;20021;-88
2022/05/18 06:03:37;;;;;;;15.27;11.75;;;;;;;;;;6074250;23;20018;-87
2022/05/18 06:06:03;;;;;;;18.38;12.05;;;;;;;;;;6099141;23;20014;-87
2022/05/18 06:08:30;;;;;;;19.38;12.05;;;;;;;;;;6097776;23;20023;-90
2022/05/18 06:10:57;;;;;;;16.02;11.85;;;;;;;;;;6097660;23;20458;-87
2022/05/18 06:13:23;;;;;;;18.55;12.27;;;;;;;;;;6097704;23;20485;-88
2022/05/18 06:15:50;;;;;;;16.35;12.18;;;;;;;;;;6098464;23;20020;-87
2022/05/18 06:18:16;;;;;;;16.80;12.50;;;;;;;;;;6074427;23;20014;-88
2022/05/18 06:20:44;;;;;;;17.20;11.77;;;;;;;;;;6073077;23;20049;-88
2022/05/18 06:23:10;;;;;;;15.48;11.90;;;;;;;;;;6097281;23;20018;-88
2022/05/18 06:25:37;;;;;;;17.30;12.38;;;;;;;;;;6099183;23;20328;-88
2022/05/18 06:28:04;;;;;;;18.27;12.30;;;;;;;;;;6074155;23;20078;-88
2022/05/18 06:30:30;;;;;;;16.88;11.82;;;;;;;;;;6076224;23;20406;-88
2022/05/18 06:32:59;;;;;;;19.00;12.13;;;;;;;;;;6095689;23;20056;-90
2022/05/18 06:35:25;;;;;;;18.23;12.00;;;15.90;99.90;;;;;;6099531;23;20096;-88
2022/05/18 06:37:52;;;;;;;19.30;11.88;;;;;;;;;;6097285;23;20100;-90
2022/05/18 06:40:19;;;;;;;13.57;11.70;;;;;;;;;;6071172;23;20395;-88
2022/05/18 06:42:45;;;;;;;15.30;11.20;;;;;;;;;;6093210;23;20016;-88
2022/05/18 06:45:12;;;;;;;16.90;11.60;;;;;;;;;;6073859;23;20014;-88
2022/05/18 06:47:39;;;;;;;13.30;11.55;;;;;;;;;;6097411;23;20017;-88
2022/05/18 06:50:06;;;;;;;17.20;12.73;;;;;;;;;;6122091;23;20009;-87
2022/05/18 06:52:33;;;;;;;16.88;12.18;;;;;;;;;;6094278;23;20639;-87
2022/05/18 06:54:59;;;;;;;19.90;12.35;;;;;;;;;;6072718;23;20111;-88
2022/05/18 06:57:34;;;;;;;20.23;11.85;;;;;;;;;;6075338;23;20018;-87
2022/05/18 07:00:04;;;;;;;20.33;12.77;;;;;;;;;;6098719;23;20097;-87
2022/05/18 07:02:30;;;;;;;16.50;12.07;;;;;;;;;;6073796;23;20509;-87
2022/05/18 07:05:00;;;;;;;19.67;12.02;;;;;;;;;;6070216;23;20029;-86
2022/05/18 07:07:26;;;;;;;19.25;11.68;;;;;;;;;;6095315;23;20104;-86
2022/05/18 07:09:52;;;;;;;14.15;11.48;;;;;;;;;;6097271;23;20275;-87
2022/05/18 07:12:19;;;;;;;16.48;11.82;;;;;;;;;;6071084;23;20103;-88
2022/05/18 07:14:53;;;;;;;14.27;11.13;;;;;;;;;;6094048;23;20036;-88
2022/05/18 07:17:19;;;;;;;15.70;11.65;;;;;;;;;;6073536;23;20074;-87
2022/05/18 07:19:45;;;;;;;16.10;12.07;;;;;;;;;;6096902;23;20014;-87
2022/05/18 07:22:12;;;;;;;16.27;11.52;;;;;;;;;;6073643;23;20048;-85
2022/05/18 07:24:38;;;;;;;17.20;11.73;;;18.50;99.90;;;;;;6094397;23;20018;-87
2022/05/18 07:27:04;;;;;;;16.45;11.60;;;;;;;;;;6096472;23;20018;-88
2022/05/18 07:29:30;;;;;;;12.88;10.85;;;;;;;;;;6073615;23;20416;-87
2022/05/18 07:32:09;;;;;;;13.63;11.07;;;;;;;;;;6099790;23;20024;-86
2022/05/18 07:34:35;;;;;;;20.58;10.60;;;;;;;;;;6097214;23;20076;-88
2022/05/18 07:37:02;;;;;;;16.20;11.18;;;;;;;;;;6073164;23;20018;-87
2022/05/18 07:39:28;;;;;;;14.23;11.07;;;;;;;;;;6075260;23;20028;-87
2022/05/18 07:42:00;;;;;;;16.58;10.38;;;;;;;;;;6099153;23;20020;-86
2022/05/18 07:44:27;;;;;;;12.10;9.63;;;;;;;;;;6075560;23;20025;-87
2022/05/18 07:46:55;;;;;;;14.15;10.40;;;;;;;;;;6095794;23;20092;-87
2022/05/18 07:49:24;;;;;;;14.80;10.88;;;;;;;;;;6094794;23;20017;-87
2022/05/18 07:51:50;;;;;;;15.07;10.40;;;20.90;99.90;;;;;;6097972;23;20040;-86
2022/05/18 07:54:17;;;;;;;16.23;10.00;;;;;;;;;;6071548;23;20443;-87
2022/05/18 07:56:43;;;;;;;14.02;10.20;;;;;;;;;;6095853;23;20013;-88
2022/05/18 07:59:11;;;;;;;13.88;10.00;;;;;;;;;;6071539;23;20021;-89
2022/05/18 08:01:39;;;;;;;18.42;9.63;;;;;;;;;;6095368;23;20017;-87
2022/05/18 08:04:05;;;;;;;13.88;9.00;;;;;;;;;;6072562;23;20020;-86
2022/05/18 08:06:33;;;;;;;16.80;8.93;;;21.70;99.90;;;;;;6094888;23;20335;-87
2022/05/18 08:08:59;;;;;;;15.90;8.68;;;22.30;99.90;;;;;;6119687;23;20025;-86
2022/05/18 08:17:01;;;;;;;14.13;7.95;;;;;;;;;;6120412;23;20391;-86
2022/05/18 08:19:29;;;;;;;12.20;7.82;;;;;;;;;;6094405;23;20022;-87
2022/05/18 08:21:55;;;;;;;14.07;9.15;;;;;;;;;;6092665;23;20009;-88
2022/05/18 08:24:24;;;;;;;13.15;8.80;;;;;;;;;;6096496;23;20096;-86
2022/05/18 08:26:50;;;;;;;14.70;7.97;;;;;;;;;;6072345;23;20013;-87
2022/05/18 08:29:22;;;;;;;15.18;7.97;;;;;;;;;;6119852;23;20201;-87
2022/05/18 08:31:49;;;;;;;13.82;7.75;;;;;;;;;;6092648;23;20021;-86
2022/05/18 08:34:15;;;;;;;11.55;7.45;;;;;;;;;;6095305;23;20175;-87
2022/05/18 08:36:42;;;;;;;11.07;7.70;;;;;;;;;;6072892;23;20346;-86
2022/05/18 08:39:09;;;;;;;13.27;6.95;;;;;;;;;;6093958;23;20119;-87
2022/05/18 08:41:43;;;;;;;13.25;7.57;;;;;;;;;;6115071;23;20108;-87
2022/05/18 08:44:10;;;;;;;12.60;7.45;;;;;;;;;;6094489;23;20417;-87
2022/05/18 08:46:49;;;;;;;11.00;6.75;;;;;;;;;;6095452;23;20013;-86
2022/05/18 08:49:28;;;;;;;13.70;7.72;;;;;;;;;;6094862;23;20403;-87
2022/05/18 08:51:54;;;;;;;15.25;6.28;;;;;;;;;;6093047;23;20018;-86
2022/05/18 08:54:40;;;;;;;11.90;6.47;;;;;;;;;;6093555;23;20021;-86
2022/05/18 08:57:13;;;;;;;10.25;6.82;;;;;;;;;;6094988;23;20687;-87
2022/05/18 08:59:39;;;;;;;12.00;6.53;;;;;;;;;;6094733;23;20091;-86
2022/05/18 09:02:16;;;;;;;10.32;7.38;;;;;;;;;;6068476;23;20060;-87
2022/05/18 09:04:52;;;;;;;13.68;7.65;;;;;;;;;;6095853;23;20020;-86
2022/05/18 09:07:20;;;;;;;8.88;6.97;;;;;;;;;;6118663;23;20014;-85
2022/05/18 09:12:49;;;;;;;12.80;7.13;;;;;;;;;;6118600;23;20021;-86
2022/05/18 09:15:18;;;;;;;12.13;7.10;;;;;;;;;;6090840;23;20344;-87
2022/05/18 09:17:59;;;;;;;11.18;7.65;;;;;;;;;;6119204;23;20092;-86
2022/05/18 09:20:46;;;;;;;12.68;8.07;;;22.50;99.90;;;;;;6094245;23;20346;-86
2022/05/18 09:23:34;;;;;;;13.75;8.18;;;24.40;99.90;;;;;;6119650;23;20009;-88
2022/05/18 09:26:10;;;;;;;13.20;8.23;;;;;;;;;;6116521;23;20024;-89
2022/05/18 09:28:46;;;;;;;12.85;8.23;;;;;;;;;;6095802;23;20089;-86
2022/05/18 09:31:40;;;;;;;13.40;7.60;;;;;;;;;;6095747;23;20104;-86
2022/05/18 09:34:31;;;;;;;11.52;7.60;;;;;;;;;;6095468;23;20039;-86
2022/05/18 09:37:24;;;;;;;11.57;8.00;;;;;;;;;;6119603;23;20021;-86
2022/05/18 09:40:06;;;;;;;9.20;6.72;;;;;;;;;;6095187;23;20040;-86
2022/05/18 09:42:34;;;;;;;11.07;5.53;;;;;;;;;;6093371;23;20368;-87
2022/05/18 09:45:04;;;;;;;11.02;6.38;;;;;;;;;;6093591;23;20241;-86
2022/05/18 09:47:41;;;;;;;9.70;6.20;;;;;;;;;;6093728;23;20009;-87
2022/05/18 09:50:14;;;;;;;10.20;6.13;;;;;;;;;;6095799;23;20092;-86
2022/05/18 09:52:41;;;;;;;10.30;6.75;;;;;;;;;;6095207;23;20544;-84
2022/05/18 09:55:26;;;;;;;9.18;6.80;;;;;;;;;;6092045;23;20096;-86
2022/05/18 09:58:33;;;;;;;12.80;8.38;;;;;;;;;;6098401;23;20025;-87
2022/05/18 10:10:00;;;;;;;11.80;8.27;;;25.20;99.90;;;;;;6117491;23;20018;-86
2022/05/18 10:12:58;;;;;;;12.68;8.82;;;25.30;99.90;;;;;;6066673;23;20013;-86
2022/05/18 10:15:40;;;;;;;11.07;7.60;;;25.30;99.90;;;;;;6096646;23;20018;-85
2022/05/18 10:18:33;;;;;;;12.63;6.82;;;25.40;99.90;;;;;;6097321;23;20014;-87
2022/05/18 10:21:11;;;;;;;10.88;6.90;;;25.40;99.90;;;;;;6093850;23;20534;-86
2022/05/18 10:24:02;;;;;;;12.25;8.35;;;25.40;99.90;;;;;;6096548;23;20025;-86
2022/05/18 10:26:44;;;;;;;10.73;8.18;;;;;;;;;;6095233;23;20044;-86
2022/05/18 10:29:19;;;;;;;12.38;7.63;;;;;;;;;;6096694;23;20010;-86
2022/05/18 10:32:03;;;;;;;9.15;7.00;;;;;;;;;;6094605;23;20043;-85
2022/05/18 10:34:32;;;;;;;13.95;7.13;;;;;;;;;;6096649;23;20076;-85
2022/05/18 10:36:59;;;;;;;11.77;7.32;;;;;;;;;;6097872;23;20037;-86
2022/05/18 10:39:31;;;;;;;10.95;7.07;;;;;;;;;;6095525;23;20024;-87
2022/05/18 10:41:59;;;;;;;12.10;8.73;;;25.60;99.90;;;;;;6116030;23;20088;-87
2022/05/18 10:44:39;;;;;;;13.90;8.25;;;26.00;97.90;;;;;;6097901;23;20653;-85
2022/05/18 10:47:19;;;;;;;11.38;5.90;;;;;;;;;;6070793;23;20020;-87
2022/05/18 10:49:47;;;;;;;13.63;7.65;;;26.10;97.20;;;;;;6096524;23;20013;-86
2022/05/18 10:52:38;;;;;;;16.27;8.48;;;26.10;96.40;;;;;;6071488;23;20084;-87
2022/05/18 10:55:14;;;;;;;11.48;7.90;;;26.10;94.70;;;;;;6075588;23;20092;-87
2022/05/18 10:57:41;;;;;;;10.95;7.13;;;;;;;;;;6093804;23;20021;-86
2022/05/18 11:00:20;;;;;;;12.13;7.97;;;26.10;96.90;;;;;;6095281;23;20018;-86
2022/05/18 11:02:59;;;;;;;15.55;8.25;;;26.10;97.30;;;;;;6092719;23;20021;-86
2022/05/18 11:05:37;;;;;;;21.05;9.30;;;26.20;98.40;;;;;;6097772;23;20013;-86
2022/05/18 11:08:08;;;;;;;11.90;8.82;;;26.20;97.70;;;;;;6094944;23;20225;-86
2022/05/18 11:10:45;;;;;;;16.05;9.27;;;26.30;95.40;;;;;;6094365;23;20021;-87
2022/05/18 11:13:46;;;;;;;16.15;10.00;;;26.30;97.00;;;;;;6092905;23;20037;-86
2022/05/18 11:16:40;;;;;;;12.63;8.48;;;26.40;97.00;;;;;;6095122;23;20063;-86
2022/05/18 11:19:16;;;;;;;14.75;10.57;;;26.30;96.70;;;;;;6103645;23;20017;-88
2022/05/18 11:22:06;;;;;;;13.95;9.98;;;26.30;95.40;;;;;;6094502;23;20017;-87
2022/05/18 11:25:04;;;;;;;14.10;9.95;;;26.30;97.20;;;;;;6095927;23;20013;-88
2022/05/18 11:27:50;;;;;;;19.50;10.25;;;26.30;99.00;;;;;;6090577;23;20024;-87
2022/05/18 11:30:46;;;;;;;15.25;9.63;;;26.30;99.90;;;;;;6097202;23;20644;-86
2022/05/18 11:33:32;;;;;;;13.77;9.50;;;26.30;99.90;;;;;;6089598;23;20018;-88
2022/05/18 11:36:22;;;;;;;16.45;10.48;;;26.40;99.20;;;;;;6096517;23;20024;-87
2022/05/18 11:39:00;;;;;;;12.88;10.13;;;;;;;;;;6095963;23;20169;-87
2022/05/18 11:41:47;;;;;;;20.80;10.50;;;;;;;;;;6118400;23;20045;-87
2022/05/18 11:44:27;;;;;;;15.50;10.10;;;;;;;;;;6091108;23;20017;-89
2022/05/18 11:47:01;;;;;;;13.88;10.07;;;;;;;;;;6092456;23;20064;-87
2022/05/18 11:49:36;;;;;;;14.90;9.73;;;;;;;;;;6098956;23;20010;-88
2022/05/18 11:52:08;;;;;;;16.90;10.18;;;;;;;;;;6096894;23;20096;-88
2022/05/18 11:54:57;;;;;;;13.95;9.57;;;;;;;;;;6095360;23;20032;-87
2022/05/18 11:57:24;;;;;;;11.95;8.82;;;;;;;;;;6096940;23;20056;-88
2022/05/18 11:59:57;;;;;;;12.90;9.75;;;;;;;;;;6097363;23;20017;-89
2022/05/18 12:13:15;;;;;;;13.13;7.43;;;;;;;;;;6188459;23;20032;-86
2022/05/18 12:25:58;;;;;;;10.85;5.65;;;;;;;;;;6190785;23;19972;-87
2022/05/18 12:28:44;;;;;;;12.13;5.80;;;;;;;;;;6136182;23;20040;-88
2022/05/18 12:31:11;;;;;;;12.75;6.35;;;;;;;;;;6139267;23;20017;-85
2022/05/18 12:33:46;;;;;;;11.27;6.63;;;;;;;;;;6118398;23;20017;-86
2022/05/18 12:36:17;;;;;;;12.75;6.65;;;;;;;;;;6145038;23;20033;-87
2022/05/18 12:38:55;;;;;;;15.40;9.30;;;;;;;;;;6138099;23;20013;-89
2022/05/18 12:41:26;;;;;;;13.13;8.00;;;;;;;;;;6138526;23;20013;-88
2022/05/18 12:44:00;;;;;;;13.10;8.23;;;;;;;;;;6142539;23;20629;-87
2022/05/18 12:46:29;;;;;;;10.05;6.90;;;;;;;;;;6139822;23;20096;-86
2022/05/18 12:49:04;;;;;;;10.80;5.70;;;;;;;;;;6138763;23;20325;-86
2022/05/18 12:51:30;;;;;;;8.13;6.25;;;;;;;;;;6137395;23;20075;-88
2022/05/18 12:54:03;;;;;;;11.65;6.30;;;;;;;;;;6140648;23;20067;-88
2022/05/18 12:56:35;;;;;;;9.27;6.13;;;;;;;;;;6145550;23;20017;-86
2022/05/18 12:59:14;;;;;;;13.05;6.20;;;;;;;;;;6138196;23;20048;-86
2022/05/18 13:01:42;;;;;;;9.82;5.95;;;;;;;;;;6142981;23;20040;-88
2022/05/18 13:04:08;;;;;;;7.80;4.78;;;;;;;;;;6134919;23;20314;-85
2022/05/18 13:06:44;;;;;;;8.77;3.97;;;;;;;;;;6160802;23;20009;-85
2022/05/18 13:09:23;;;;;;;6.25;3.63;;;;;;;;;;6129130;23;20342;-86
2022/05/18 13:11:49;;;;;;;8.07;3.28;;;;;;;;;;6127114;23;20409;-87
2022/05/18 13:14:30;;;;;;;6.60;3.50;;;;;;;;;;6173406;23;20017;-86
2022/05/18 13:17:13;;;;;;;8.63;3.90;;;;;;;;;;6151316;23;20028;-87
2022/05/18 13:19:59;;;;;;;11.48;3.70;;;;;;;;;;6153093;23;20076;-86
2022/05/18 13:22:34;;;;;;;12.52;4.15;;;;;;;;;;6152144;23;20427;-89
2022/05/18 13:25:07;;;;;;;6.43;4.10;;;;;;;;;;6154773;23;20125;-88
2022/05/18 13:27:37;;;;;;;9.70;5.53;;;;;;;;;;6151139;23;20793;-88
2022/05/18 13:30:27;;;;;;;13.75;8.00;;;;;;;;;;6151295;23;20067;-86
2022/05/18 13:32:54;;;;;;;12.63;9.65;;;;;;;;;;6134097;23;20016;-87
2022/05/18 13:35:21;;;;;;;13.45;10.10;;;;;;;;;;6149238;23;20108;-87
2022/05/18 13:38:14;;;;;;;11.45;9.00;;;;;;;;;;6146339;23;20013;-87
2022/05/18 13:40:59;;;;;;;16.15;9.95;;;;;;;;;;6144034;23;20013;-86
2022/05/18 13:43:29;;;;;;;15.80;10.13;;;;;;;;;;6147587;23;20048;-87
2022/05/18 13:45:56;;;;;;;13.20;9.95;;;;;;;;;;6147356;23;20044;-89
2022/05/18 13:48:25;;;;;;;16.17;10.15;;;;;;;;;;6149217;23;20083;-89
2022/05/18 13:50:53;;;;;;;12.27;9.27;;;;;;;;;;6148716;23;20394;-89
2022/05/18 13:53:20;;;;;;;13.85;9.63;;;;;;;;;;6148662;23;20057;-89
2022/05/18 13:55:50;;;;;;;15.25;10.32;;;;;;;;;;6150043;23;20040;-87
2022/05/18 13:58:20;;;;;;;17.20;10.55;;;;;;;;;;6149743;23;20049;-87
2022/05/18 14:00:49;;;;;;;17.63;9.95;;;;;;;;;;6148547;23;20242;-89
2022/05/18 14:03:17;;;;;;;15.65;8.82;;;;;;;;;;6147598;23;20323;-87
2022/05/18 14:05:43;;;;;;;8.02;6.30;;;;;;;;;;6150630;23;20009;-88
2022/05/18 14:08:30;;;;;;;9.55;6.03;;;;;;;;;;6151298;23;20017;-86
2022/05/18 14:11:23;;;;;;;17.80;10.73;;;;;;;;;;6154057;23;20013;-87
2022/05/18 14:13:52;;;;;;;12.30;7.72;;;;;;;;;;6147415;23;20469;-86
2022/05/18 14:16:41;;;;;;;11.43;7.70;;;;;;;;;;6153886;23;20879;-86
2022/05/18 14:19:09;;;;;;;13.27;7.65;;;;;;;;;;6139527;23;20104;-86
2022/05/18 14:21:37;;;;;;;12.20;7.07;;;;;;;;;;6152284;23;20071;-86
2022/05/18 14:24:07;;;;;;;10.68;6.10;;;;;;;;;;6149664;23;20019;-86
2022/05/18 14:26:33;;;;;;;9.70;7.25;;;;;;;;;;6151471;23;20013;-88
2022/05/18 14:29:03;;;;;;;13.57;8.35;;;;;;;;;;6151769;23;20458;-84
2022/05/18 14:31:31;;;;;;;12.48;9.27;;;;;;;;;;6150766;23;20079;-88
2022/05/18 14:34:02;;;;;;;13.25;9.00;;;;;;;;;;6151764;23;20028;-88
2022/05/18 14:36:36;;;;;;;19.38;8.65;;;;;;;;;;6151373;23;20064;-86
2022/05/18 14:39:15;;;;;;;15.70;10.48;;;;;;;;;;6152360;23;20388;-86
2022/05/18 14:41:44;;;;;;;18.30;12.88;;;;;;;;;;6150980;23;20017;-86
2022/05/18 14:44:11;;;;;;;22.50;14.10;;;;;;;;;;6150145;23;20013;-85
2022/05/18 14:46:44;;;;;;;23.48;15.18;;;;;;;;;;6149431;23;20021;-87
2022/05/18 14:49:13;;;;;;;18.90;13.15;;;;;;;;;;6151030;23;20390;-89
2022/05/18 14:51:52;;;;;;;24.33;14.60;;;;;;;;;;6174251;23;20017;-88
2022/05/18 14:54:35;;;;;;;21.00;15.95;;;;;;;;;;6148748;23;20365;-87
2022/05/18 14:57:23;;;;;;;20.73;15.77;;;;;;;;;;6150526;23;20017;-88
2022/05/18 14:59:51;;;;;;;20.05;14.48;;;;;;;;;;6152315;23;20020;-87
2022/05/18 15:02:18;;;;;;;20.73;16.00;;;;;;;;;;6155298;23;20021;-88
2022/05/18 15:05:03;;;;;;;22.27;15.10;;;;;;;;;;6150384;23;20013;-87